sensor_id;sensor_type;location;lat;lon;timestamp;P1;durP1;ratioP1;P2;durP2;ratioP2
62030;SDS011;62035;52.094;5.112;2023-07-22T00:01:50;21.33;;;10.75;;
62030;SDS011;62035;52.094;5.112;2023-07-22T00:04:18;19.70;;;10.15;;
62030;SDS011;62035;52.094;5.112;2023-07-22T00:06:47;20.50;;;10.77;;
62030;SDS011;62035;52.094;5.112;2023-07-22T00:09:14;22.58;;;10.48;;
62030;SDS011;62035;52.094;5.112;2023-07-22T00:11:42;20.08;;;11.43;;
62030;SDS011;62035;52.094;5.112;2023-07-22T00:14:09;22.98;;;10.18;;
62030;SDS011;62035;52.094;5.112;2023-07-22T00:16:37;20.75;;;10.75;;
62030;SDS011;62035;52.094;5.112;2023-07-22T00:19:05;17.73;;;10.23;;
62030;SDS011;62035;52.094;5.112;2023-07-22T00:21:33;19.48;;;10.13;;
62030;SDS011;62035;52.094;5.112;2023-07-22T00:24:02;19.65;;;9.45;;
62030;SDS011;62035;52.094;5.112;2023-07-22T00:26:31;18.05;;;9.48;;
62030;SDS011;62035;52.094;5.112;2023-07-22T00:28:59;21.52;;;10.82;;
62030;SDS011;62035;52.094;5.112;2023-07-22T00:31:27;16.73;;;10.50;;
62030;SDS011;62035;52.094;5.112;2023-07-22T00:33:54;20.15;;;10.98;;
62030;SDS011;62035;52.094;5.112;2023-07-22T00:36:22;18.77;;;10.25;;
62030;SDS011;62035;52.094;5.112;2023-07-22T00:38:50;20.23;;;10.48;;
62030;SDS011;62035;52.094;5.112;2023-07-22T00:41:20;21.35;;;10.63;;
62030;SDS011;62035;52.094;5.112;2023-07-22T00:43:48;18.95;;;9.48;;
62030;SDS011;62035;52.094;5.112;2023-07-22T00:46:15;21.17;;;11.52;;
62030;SDS011;62035;52.094;5.112;2023-07-22T00:48:43;19.23;;;9.45;;
62030;SDS011;62035;52.094;5.112;2023-07-22T00:51:12;19.50;;;10.18;;
62030;SDS011;62035;52.094;5.112;2023-07-22T00:53:40;18.15;;;10.73;;
62030;SDS011;62035;52.094;5.112;2023-07-22T00:56:07;18.80;;;10.68;;
62030;SDS011;62035;52.094;5.112;2023-07-22T00:58:36;19.88;;;10.73;;
62030;SDS011;62035;52.094;5.112;2023-07-22T01:01:04;19.50;;;9.75;;
62030;SDS011;62035;52.094;5.112;2023-07-22T01:03:32;21.80;;;10.32;;
62030;SDS011;62035;52.094;5.112;2023-07-22T01:06:01;21.42;;;10.45;;
62030;SDS011;62035;52.094;5.112;2023-07-22T01:08:29;23.05;;;10.27;;
62030;SDS011;62035;52.094;5.112;2023-07-22T01:10:57;22.48;;;11.40;;
62030;SDS011;62035;52.094;5.112;2023-07-22T01:13:25;20.98;;;10.48;;
62030;SDS011;62035;52.094;5.112;2023-07-22T01:15:55;17.63;;;10.98;;
62030;SDS011;62035;52.094;5.112;2023-07-22T01:18:23;20.42;;;10.27;;
62030;SDS011;62035;52.094;5.112;2023-07-22T01:20:51;22.92;;;11.90;;
62030;SDS011;62035;52.094;5.112;2023-07-22T01:23:20;22.17;;;10.57;;
62030;SDS011;62035;52.094;5.112;2023-07-22T01:25:48;22.08;;;10.43;;
62030;SDS011;62035;52.094;5.112;2023-07-22T01:28:17;20.05;;;9.88;;
62030;SDS011;62035;52.094;5.112;2023-07-22T01:30:47;16.77;;;10.25;;
62030;SDS011;62035;52.094;5.112;2023-07-22T01:33:15;18.40;;;10.15;;
62030;SDS011;62035;52.094;5.112;2023-07-22T01:35:43;20.60;;;10.32;;
62030;SDS011;62035;52.094;5.112;2023-07-22T01:38:11;18.60;;;9.70;;
62030;SDS011;62035;52.094;5.112;2023-07-22T01:40:40;18.92;;;10.20;;
62030;SDS011;62035;52.094;5.112;2023-07-22T01:43:08;21.85;;;10.38;;
62030;SDS011;62035;52.094;5.112;2023-07-22T01:45:36;20.35;;;10.32;;
62030;SDS011;62035;52.094;5.112;2023-07-22T01:48:04;20.20;;;10.25;;
62030;SDS011;62035;52.094;5.112;2023-07-22T01:50:32;17.80;;;9.82;;
62030;SDS011;62035;52.094;5.112;2023-07-22T01:52:59;19.02;;;9.90;;
62030;SDS011;62035;52.094;5.112;2023-07-22T01:55:27;19.65;;;9.48;;
62030;SDS011;62035;52.094;5.112;2023-07-22T01:57:56;17.65;;;9.70;;
62030;SDS011;62035;52.094;5.112;2023-07-22T02:00:24;19.70;;;9.93;;
62030;SDS011;62035;52.094;5.112;2023-07-22T02:02:52;18.23;;;9.18;;
62030;SDS011;62035;52.094;5.112;2023-07-22T02:05:20;27.65;;;10.27;;
62030;SDS011;62035;52.094;5.112;2023-07-22T02:07:48;16.35;;;9.23;;
62030;SDS011;62035;52.094;5.112;2023-07-22T02:10:15;21.55;;;9.50;;
62030;SDS011;62035;52.094;5.112;2023-07-22T02:12:43;15.93;;;8.40;;
62030;SDS011;62035;52.094;5.112;2023-07-22T02:15:12;23.55;;;10.85;;
62030;SDS011;62035;52.094;5.112;2023-07-22T02:17:40;18.00;;;8.80;;
62030;SDS011;62035;52.094;5.112;2023-07-22T02:20:08;16.52;;;8.88;;
62030;SDS011;62035;52.094;5.112;2023-07-22T02:22:36;16.88;;;9.25;;
62030;SDS011;62035;52.094;5.112;2023-07-22T02:25:04;17.75;;;9.70;;
62030;SDS011;62035;52.094;5.112;2023-07-22T02:27:33;18.25;;;9.02;;
62030;SDS011;62035;52.094;5.112;2023-07-22T02:30:00;15.07;;;9.13;;
62030;SDS011;62035;52.094;5.112;2023-07-22T02:32:31;12.70;;;8.20;;
62030;SDS011;62035;52.094;5.112;2023-07-22T02:34:59;14.52;;;8.73;;
62030;SDS011;62035;52.094;5.112;2023-07-22T02:37:26;18.70;;;8.90;;
62030;SDS011;62035;52.094;5.112;2023-07-22T02:39:54;21.27;;;9.38;;
62030;SDS011;62035;52.094;5.112;2023-07-22T02:42:22;18.40;;;8.80;;
62030;SDS011;62035;52.094;5.112;2023-07-22T02:44:49;18.55;;;8.77;;
62030;SDS011;62035;52.094;5.112;2023-07-22T02:47:17;14.20;;;7.50;;
62030;SDS011;62035;52.094;5.112;2023-07-22T02:49:46;15.32;;;8.00;;
62030;SDS011;62035;52.094;5.112;2023-07-22T02:52:14;16.73;;;8.10;;
62030;SDS011;62035;52.094;5.112;2023-07-22T02:54:42;14.48;;;7.45;;
62030;SDS011;62035;52.094;5.112;2023-07-22T02:57:09;12.05;;;6.70;;
62030;SDS011;62035;52.094;5.112;2023-07-22T02:59:37;12.98;;;6.70;;
62030;SDS011;62035;52.094;5.112;2023-07-22T03:02:05;12.32;;;6.95;;
62030;SDS011;62035;52.094;5.112;2023-07-22T03:04:32;12.07;;;6.70;;
62030;SDS011;62035;52.094;5.112;2023-07-22T03:07:01;13.52;;;7.07;;
62030;SDS011;62035;52.094;5.112;2023-07-22T03:09:30;13.10;;;6.47;;
62030;SDS011;62035;52.094;5.112;2023-07-22T03:11:57;14.05;;;7.45;;
62030;SDS011;62035;52.094;5.112;2023-07-22T03:14:25;16.50;;;7.72;;
62030;SDS011;62035;52.094;5.112;2023-07-22T03:16:53;14.02;;;7.53;;
62030;SDS011;62035;52.094;5.112;2023-07-22T03:19:20;14.30;;;7.90;;
62030;SDS011;62035;52.094;5.112;2023-07-22T03:21:48;13.93;;;7.80;;
62030;SDS011;62035;52.094;5.112;2023-07-22T03:24:17;13.57;;;7.13;;
62030;SDS011;62035;52.094;5.112;2023-07-22T03:26:45;12.32;;;6.82;;
62030;SDS011;62035;52.094;5.112;2023-07-22T03:29:13;14.57;;;7.10;;
62030;SDS011;62035;52.094;5.112;2023-07-22T03:31:41;11.98;;;6.25;;
62030;SDS011;62035;52.094;5.112;2023-07-22T03:34:08;10.35;;;6.40;;
62030;SDS011;62035;52.094;5.112;2023-07-22T03:36:36;10.70;;;6.10;;
62030;SDS011;62035;52.094;5.112;2023-07-22T03:39:03;12.35;;;6.38;;
62030;SDS011;62035;52.094;5.112;2023-07-22T03:41:33;12.52;;;5.90;;
62030;SDS011;62035;52.094;5.112;2023-07-22T03:44:01;11.68;;;5.70;;
62030;SDS011;62035;52.094;5.112;2023-07-22T03:46:28;14.07;;;5.50;;
62030;SDS011;62035;52.094;5.112;2023-07-22T03:48:56;9.75;;;5.00;;
62030;SDS011;62035;52.094;5.112;2023-07-22T03:51:24;12.35;;;5.38;;
62030;SDS011;62035;52.094;5.112;2023-07-22T03:53:52;11.02;;;5.22;;
62030;SDS011;62035;52.094;5.112;2023-07-22T03:56:19;9.27;;;4.90;;
62030;SDS011;62035;52.094;5.112;2023-07-22T03:58:51;9.98;;;5.45;;
62030;SDS011;62035;52.094;5.112;2023-07-22T04:01:19;12.10;;;5.70;;
62030;SDS011;62035;52.094;5.112;2023-07-22T04:03:47;10.80;;;5.70;;
62030;SDS011;62035;52.094;5.112;2023-07-22T04:06:15;12.52;;;6.07;;
62030;SDS011;62035;52.094;5.112;2023-07-22T04:08:42;9.43;;;5.55;;
62030;SDS011;62035;52.094;5.112;2023-07-22T04:11:11;14.40;;;6.65;;
62030;SDS011;62035;52.094;5.112;2023-07-22T04:13:39;11.70;;;6.32;;
62030;SDS011;62035;52.094;5.112;2023-07-22T04:16:09;16.55;;;6.40;;
62030;SDS011;62035;52.094;5.112;2023-07-22T04:18:36;13.80;;;7.35;;
62030;SDS011;62035;52.094;5.112;2023-07-22T04:21:04;18.10;;;9.23;;
62030;SDS011;62035;52.094;5.112;2023-07-22T04:23:32;15.95;;;8.02;;
62030;SDS011;62035;52.094;5.112;2023-07-22T04:26:01;18.20;;;7.78;;
62030;SDS011;62035;52.094;5.112;2023-07-22T04:28:33;16.63;;;7.75;;
62030;SDS011;62035;52.094;5.112;2023-07-22T04:31:01;16.90;;;8.10;;
62030;SDS011;62035;52.094;5.112;2023-07-22T04:33:32;17.00;;;7.93;;
62030;SDS011;62035;52.094;5.112;2023-07-22T04:36:00;26.42;;;9.15;;
62030;SDS011;62035;52.094;5.112;2023-07-22T04:38:28;19.15;;;9.70;;
62030;SDS011;62035;52.094;5.112;2023-07-22T04:40:55;18.17;;;8.52;;
62030;SDS011;62035;52.094;5.112;2023-07-22T04:43:23;17.10;;;9.60;;
62030;SDS011;62035;52.094;5.112;2023-07-22T04:45:50;22.92;;;10.10;;
62030;SDS011;62035;52.094;5.112;2023-07-22T04:48:19;23.20;;;10.90;;
62030;SDS011;62035;52.094;5.112;2023-07-22T04:50:50;23.97;;;9.53;;
62030;SDS011;62035;52.094;5.112;2023-07-22T04:53:18;25.40;;;10.68;;
62030;SDS011;62035;52.094;5.112;2023-07-22T04:55:46;19.23;;;10.18;;
62030;SDS011;62035;52.094;5.112;2023-07-22T04:58:13;21.75;;;10.05;;
62030;SDS011;62035;52.094;5.112;2023-07-22T05:00:41;21.20;;;9.63;;
62030;SDS011;62035;52.094;5.112;2023-07-22T05:03:09;22.25;;;10.93;;
62030;SDS011;62035;52.094;5.112;2023-07-22T05:05:37;20.80;;;10.88;;
62030;SDS011;62035;52.094;5.112;2023-07-22T05:08:06;21.83;;;10.27;;
62030;SDS011;62035;52.094;5.112;2023-07-22T05:10:34;20.80;;;10.30;;
62030;SDS011;62035;52.094;5.112;2023-07-22T05:13:03;23.45;;;11.30;;
62030;SDS011;62035;52.094;5.112;2023-07-22T05:15:31;25.23;;;12.05;;
62030;SDS011;62035;52.094;5.112;2023-07-22T05:17:59;27.35;;;12.20;;
62030;SDS011;62035;52.094;5.112;2023-07-22T05:20:26;30.73;;;12.25;;
62030;SDS011;62035;52.094;5.112;2023-07-22T05:22:54;29.33;;;12.13;;
62030;SDS011;62035;52.094;5.112;2023-07-22T05:25:24;26.95;;;12.93;;
62030;SDS011;62035;52.094;5.112;2023-07-22T05:27:51;27.95;;;12.60;;
62030;SDS011;62035;52.094;5.112;2023-07-22T05:30:19;27.92;;;14.20;;
62030;SDS011;62035;52.094;5.112;2023-07-22T05:32:47;24.27;;;12.50;;
62030;SDS011;62035;52.094;5.112;2023-07-22T05:35:14;28.50;;;13.10;;
62030;SDS011;62035;52.094;5.112;2023-07-22T05:37:43;28.42;;;13.48;;
62030;SDS011;62035;52.094;5.112;2023-07-22T05:40:10;23.80;;;12.70;;
62030;SDS011;62035;52.094;5.112;2023-07-22T05:42:40;28.88;;;13.77;;
62030;SDS011;62035;52.094;5.112;2023-07-22T05:45:08;33.45;;;13.25;;
62030;SDS011;62035;52.094;5.112;2023-07-22T05:47:39;31.90;;;13.38;;
62030;SDS011;62035;52.094;5.112;2023-07-22T05:50:07;27.33;;;12.93;;
62030;SDS011;62035;52.094;5.112;2023-07-22T05:52:35;34.65;;;14.27;;
62030;SDS011;62035;52.094;5.112;2023-07-22T05:55:04;27.98;;;13.60;;
62030;SDS011;62035;52.094;5.112;2023-07-22T05:57:32;25.13;;;13.07;;
62030;SDS011;62035;52.094;5.112;2023-07-22T06:00:02;34.70;;;13.93;;
62030;SDS011;62035;52.094;5.112;2023-07-22T06:02:30;27.45;;;12.38;;
62030;SDS011;62035;52.094;5.112;2023-07-22T06:04:58;31.55;;;13.85;;
62030;SDS011;62035;52.094;5.112;2023-07-22T06:07:26;29.73;;;13.15;;
62030;SDS011;62035;52.094;5.112;2023-07-22T06:09:53;28.48;;;13.27;;
62030;SDS011;62035;52.094;5.112;2023-07-22T06:12:21;27.05;;;13.68;;
62030;SDS011;62035;52.094;5.112;2023-07-22T06:14:49;22.13;;;12.48;;
62030;SDS011;62035;52.094;5.112;2023-07-22T06:17:18;25.58;;;13.23;;
62030;SDS011;62035;52.094;5.112;2023-07-22T06:19:46;27.30;;;13.15;;
62030;SDS011;62035;52.094;5.112;2023-07-22T06:22:14;23.92;;;12.43;;
62030;SDS011;62035;52.094;5.112;2023-07-22T06:24:41;26.92;;;11.90;;
62030;SDS011;62035;52.094;5.112;2023-07-22T06:27:09;25.02;;;12.23;;
62030;SDS011;62035;52.094;5.112;2023-07-22T06:29:37;34.78;;;14.27;;
62030;SDS011;62035;52.094;5.112;2023-07-22T06:32:05;24.42;;;13.23;;
62030;SDS011;62035;52.094;5.112;2023-07-22T06:34:35;29.17;;;12.68;;
62030;SDS011;62035;52.094;5.112;2023-07-22T06:37:03;26.52;;;12.90;;
62030;SDS011;62035;52.094;5.112;2023-07-22T06:39:31;25.08;;;12.15;;
62030;SDS011;62035;52.094;5.112;2023-07-22T06:41:59;21.60;;;12.02;;
62030;SDS011;62035;52.094;5.112;2023-07-22T06:44:26;25.88;;;12.25;;
62030;SDS011;62035;52.094;5.112;2023-07-22T06:46:54;26.55;;;11.85;;
62030;SDS011;62035;52.094;5.112;2023-07-22T06:49:22;26.33;;;12.23;;
62030;SDS011;62035;52.094;5.112;2023-07-22T06:51:51;34.67;;;12.60;;
62030;SDS011;62035;52.094;5.112;2023-07-22T06:54:19;27.08;;;11.63;;
62030;SDS011;62035;52.094;5.112;2023-07-22T06:56:47;27.02;;;11.88;;
62030;SDS011;62035;52.094;5.112;2023-07-22T06:59:14;23.30;;;11.50;;
62030;SDS011;62035;52.094;5.112;2023-07-22T07:01:42;28.48;;;12.20;;
62030;SDS011;62035;52.094;5.112;2023-07-22T07:04:10;22.00;;;11.70;;
62030;SDS011;62035;52.094;5.112;2023-07-22T07:06:37;29.73;;;13.07;;
62030;SDS011;62035;52.094;5.112;2023-07-22T07:09:06;26.55;;;11.90;;
62030;SDS011;62035;52.094;5.112;2023-07-22T07:11:34;20.65;;;10.88;;
62030;SDS011;62035;52.094;5.112;2023-07-22T07:14:02;25.13;;;11.38;;
62030;SDS011;62035;52.094;5.112;2023-07-22T07:16:30;25.52;;;11.80;;
62030;SDS011;62035;52.094;5.112;2023-07-22T07:18:59;24.13;;;11.68;;
62030;SDS011;62035;52.094;5.112;2023-07-22T07:21:28;25.67;;;12.23;;
62030;SDS011;62035;52.094;5.112;2023-07-22T07:23:55;26.23;;;11.82;;
62030;SDS011;62035;52.094;5.112;2023-07-22T07:26:26;24.52;;;11.55;;
62030;SDS011;62035;52.094;5.112;2023-07-22T07:28:54;21.65;;;10.77;;
62030;SDS011;62035;52.094;5.112;2023-07-22T07:31:22;23.40;;;11.00;;
62030;SDS011;62035;52.094;5.112;2023-07-22T07:33:49;21.50;;;11.23;;
62030;SDS011;62035;52.094;5.112;2023-07-22T07:36:17;25.13;;;11.43;;
62030;SDS011;62035;52.094;5.112;2023-07-22T07:38:45;22.92;;;11.07;;
62030;SDS011;62035;52.094;5.112;2023-07-22T07:41:13;17.48;;;10.23;;
62030;SDS011;62035;52.094;5.112;2023-07-22T07:43:42;23.63;;;10.98;;
62030;SDS011;62035;52.094;5.112;2023-07-22T07:46:14;21.05;;;9.73;;
62030;SDS011;62035;52.094;5.112;2023-07-22T07:48:46;25.13;;;10.98;;
62030;SDS011;62035;52.094;5.112;2023-07-22T07:51:16;20.20;;;10.68;;
62030;SDS011;62035;52.094;5.112;2023-07-22T07:53:45;19.42;;;10.60;;
62030;SDS011;62035;52.094;5.112;2023-07-22T07:56:13;22.98;;;9.63;;
62030;SDS011;62035;52.094;5.112;2023-07-22T07:58:44;19.02;;;9.63;;
62030;SDS011;62035;52.094;5.112;2023-07-22T08:01:14;21.38;;;10.05;;
62030;SDS011;62035;52.094;5.112;2023-07-22T08:03:42;17.75;;;9.75;;
62030;SDS011;62035;52.094;5.112;2023-07-22T08:06:12;20.63;;;9.75;;
62030;SDS011;62035;52.094;5.112;2023-07-22T08:08:40;16.23;;;9.30;;
62030;SDS011;62035;52.094;5.112;2023-07-22T08:11:08;21.70;;;9.65;;
62030;SDS011;62035;52.094;5.112;2023-07-22T08:13:39;19.15;;;10.70;;
62030;SDS011;62035;52.094;5.112;2023-07-22T08:16:10;20.65;;;9.65;;
62030;SDS011;62035;52.094;5.112;2023-07-22T08:18:39;23.63;;;10.43;;
62030;SDS011;62035;52.094;5.112;2023-07-22T08:21:07;22.75;;;9.32;;
62030;SDS011;62035;52.094;5.112;2023-07-22T08:23:36;20.80;;;10.80;;
62030;SDS011;62035;52.094;5.112;2023-07-22T08:26:04;16.95;;;10.07;;
62030;SDS011;62035;52.094;5.112;2023-07-22T08:28:33;17.23;;;9.20;;
62030;SDS011;62035;52.094;5.112;2023-07-22T08:31:01;16.85;;;8.88;;
62030;SDS011;62035;52.094;5.112;2023-07-22T08:33:30;27.13;;;9.48;;
62030;SDS011;62035;52.094;5.112;2023-07-22T08:35:58;15.98;;;8.43;;
62030;SDS011;62035;52.094;5.112;2023-07-22T08:38:26;13.85;;;8.30;;
62030;SDS011;62035;52.094;5.112;2023-07-22T08:40:53;16.27;;;8.90;;
62030;SDS011;62035;52.094;5.112;2023-07-22T08:43:21;15.68;;;7.82;;
62030;SDS011;62035;52.094;5.112;2023-07-22T08:45:51;17.38;;;7.78;;
62030;SDS011;62035;52.094;5.112;2023-07-22T08:48:21;16.13;;;8.02;;
62030;SDS011;62035;52.094;5.112;2023-07-22T08:50:55;17.08;;;7.63;;
62030;SDS011;62035;52.094;5.112;2023-07-22T08:53:30;13.93;;;6.68;;
62030;SDS011;62035;52.094;5.112;2023-07-22T08:55:59;12.88;;;6.30;;
62030;SDS011;62035;52.094;5.112;2023-07-22T08:58:28;13.80;;;6.90;;
62030;SDS011;62035;52.094;5.112;2023-07-22T09:00:56;18.10;;;7.05;;
62030;SDS011;62035;52.094;5.112;2023-07-22T09:03:26;12.90;;;6.72;;
62030;SDS011;62035;52.094;5.112;2023-07-22T09:05:55;13.95;;;6.45;;
62030;SDS011;62035;52.094;5.112;2023-07-22T09:08:24;21.10;;;6.78;;
62030;SDS011;62035;52.094;5.112;2023-07-22T09:10:53;11.60;;;5.55;;
62030;SDS011;62035;52.094;5.112;2023-07-22T09:13:21;14.98;;;5.45;;
62030;SDS011;62035;52.094;5.112;2023-07-22T09:15:50;10.98;;;5.82;;
62030;SDS011;62035;52.094;5.112;2023-07-22T09:18:19;14.52;;;5.63;;
62030;SDS011;62035;52.094;5.112;2023-07-22T09:20:46;11.48;;;5.53;;
62030;SDS011;62035;52.094;5.112;2023-07-22T09:23:15;11.85;;;5.85;;
62030;SDS011;62035;52.094;5.112;2023-07-22T09:25:43;9.30;;;5.22;;
62030;SDS011;62035;52.094;5.112;2023-07-22T09:28:11;10.55;;;5.35;;
62030;SDS011;62035;52.094;5.112;2023-07-22T09:30:39;9.85;;;5.05;;
62030;SDS011;62035;52.094;5.112;2023-07-22T09:33:07;11.40;;;4.78;;
62030;SDS011;62035;52.094;5.112;2023-07-22T09:35:48;12.90;;;4.50;;
62030;SDS011;62035;52.094;5.112;2023-07-22T09:38:23;10.07;;;4.00;;
62030;SDS011;62035;52.094;5.112;2023-07-22T09:40:52;10.20;;;4.68;;
62030;SDS011;62035;52.094;5.112;2023-07-22T09:43:21;10.85;;;5.00;;
62030;SDS011;62035;52.094;5.112;2023-07-22T09:45:50;14.45;;;4.88;;
62030;SDS011;62035;52.094;5.112;2023-07-22T09:48:20;15.93;;;5.22;;
62030;SDS011;62035;52.094;5.112;2023-07-22T09:50:55;11.32;;;5.18;;
62030;SDS011;62035;52.094;5.112;2023-07-22T09:53:25;10.98;;;5.28;;
62030;SDS011;62035;52.094;5.112;2023-07-22T09:55:52;12.68;;;4.93;;
62030;SDS011;62035;52.094;5.112;2023-07-22T09:58:20;7.13;;;4.47;;
62030;SDS011;62035;52.094;5.112;2023-07-22T10:00:56;8.52;;;4.30;;
62030;SDS011;62035;52.094;5.112;2023-07-22T10:03:26;12.90;;;4.50;;
62030;SDS011;62035;52.094;5.112;2023-07-22T10:05:57;12.50;;;4.60;;
62030;SDS011;62035;52.094;5.112;2023-07-22T10:08:31;7.75;;;4.10;;
62030;SDS011;62035;52.094;5.112;2023-07-22T10:11:03;10.23;;;3.88;;
62030;SDS011;62035;52.094;5.112;2023-07-22T10:13:34;11.55;;;4.32;;
62030;SDS011;62035;52.094;5.112;2023-07-22T10:16:03;10.27;;;4.40;;
62030;SDS011;62035;52.094;5.112;2023-07-22T10:18:33;10.73;;;4.00;;
62030;SDS011;62035;52.094;5.112;2023-07-22T10:21:03;12.10;;;4.07;;
62030;SDS011;62035;52.094;5.112;2023-07-22T10:23:33;8.93;;;3.75;;
62030;SDS011;62035;52.094;5.112;2023-07-22T10:26:02;10.55;;;4.13;;
62030;SDS011;62035;52.094;5.112;2023-07-22T10:28:30;12.35;;;3.90;;
62030;SDS011;62035;52.094;5.112;2023-07-22T10:30:58;10.25;;;4.18;;
62030;SDS011;62035;52.094;5.112;2023-07-22T10:33:26;12.82;;;4.20;;
62030;SDS011;62035;52.094;5.112;2023-07-22T10:36:02;8.10;;;3.50;;
62030;SDS011;62035;52.094;5.112;2023-07-22T10:38:34;9.55;;;3.92;;
62030;SDS011;62035;52.094;5.112;2023-07-22T10:41:11;9.52;;;3.85;;
62030;SDS011;62035;52.094;5.112;2023-07-22T10:43:42;9.93;;;3.55;;
62030;SDS011;62035;52.094;5.112;2023-07-22T10:46:30;10.38;;;3.92;;
62030;SDS011;62035;52.094;5.112;2023-07-22T10:49:09;8.13;;;3.80;;
62030;SDS011;62035;52.094;5.112;2023-07-22T10:51:39;9.38;;;4.00;;
62030;SDS011;62035;52.094;5.112;2023-07-22T10:54:12;9.90;;;4.05;;
62030;SDS011;62035;52.094;5.112;2023-07-22T10:56:43;10.10;;;3.90;;
62030;SDS011;62035;52.094;5.112;2023-07-22T10:59:11;8.15;;;4.13;;
62030;SDS011;62035;52.094;5.112;2023-07-22T11:01:39;10.93;;;3.85;;
62030;SDS011;62035;52.094;5.112;2023-07-22T11:04:12;7.45;;;3.30;;
62030;SDS011;62035;52.094;5.112;2023-07-22T11:06:56;9.63;;;3.20;;
62030;SDS011;62035;52.094;5.112;2023-07-22T11:09:37;6.85;;;3.20;;
62030;SDS011;62035;52.094;5.112;2023-07-22T11:12:09;11.05;;;3.13;;
62030;SDS011;62035;52.094;5.112;2023-07-22T11:14:45;7.05;;;2.90;;
62030;SDS011;62035;52.094;5.112;2023-07-22T11:17:15;11.40;;;3.03;;
62030;SDS011;62035;52.094;5.112;2023-07-22T11:19:45;6.28;;;2.70;;
62030;SDS011;62035;52.094;5.112;2023-07-22T11:22:14;5.28;;;3.10;;
62030;SDS011;62035;52.094;5.112;2023-07-22T11:24:44;5.80;;;3.00;;
62030;SDS011;62035;52.094;5.112;2023-07-22T11:27:12;7.40;;;3.40;;
62030;SDS011;62035;52.094;5.112;2023-07-22T11:29:40;8.30;;;3.72;;
62030;SDS011;62035;52.094;5.112;2023-07-22T11:32:14;7.38;;;3.30;;
62030;SDS011;62035;52.094;5.112;2023-07-22T11:34:43;6.95;;;3.30;;
62030;SDS011;62035;52.094;5.112;2023-07-22T11:37:11;7.18;;;3.10;;
62030;SDS011;62035;52.094;5.112;2023-07-22T11:39:40;12.95;;;3.17;;
62030;SDS011;62035;52.094;5.112;2023-07-22T11:42:11;7.22;;;3.60;;
62030;SDS011;62035;52.094;5.112;2023-07-22T11:44:38;12.02;;;4.18;;
62030;SDS011;62035;52.094;5.112;2023-07-22T11:47:07;20.42;;;11.23;;
62030;SDS011;62035;52.094;5.112;2023-07-22T11:49:35;8.65;;;3.88;;
62030;SDS011;62035;52.094;5.112;2023-07-22T11:52:05;11.73;;;4.25;;
62030;SDS011;62035;52.094;5.112;2023-07-22T11:54:37;7.57;;;4.45;;
62030;SDS011;62035;52.094;5.112;2023-07-22T11:57:12;10.82;;;4.20;;
62030;SDS011;62035;52.094;5.112;2023-07-22T11:59:43;8.85;;;4.47;;
62030;SDS011;62035;52.094;5.112;2023-07-22T12:02:12;8.15;;;4.50;;
62030;SDS011;62035;52.094;5.112;2023-07-22T12:04:41;10.65;;;4.18;;
62030;SDS011;62035;52.094;5.112;2023-07-22T12:07:20;8.07;;;3.92;;
62030;SDS011;62035;52.094;5.112;2023-07-22T12:09:50;9.32;;;3.88;;
62030;SDS011;62035;52.094;5.112;2023-07-22T12:12:20;10.75;;;4.07;;
62030;SDS011;62035;52.094;5.112;2023-07-22T12:15:00;10.23;;;4.40;;
62030;SDS011;62035;52.094;5.112;2023-07-22T12:17:42;9.10;;;4.22;;
62030;SDS011;62035;52.094;5.112;2023-07-22T12:20:12;8.50;;;4.13;;
62030;SDS011;62035;52.094;5.112;2023-07-22T12:22:41;13.13;;;4.38;;
62030;SDS011;62035;52.094;5.112;2023-07-22T12:25:09;11.57;;;4.20;;
62030;SDS011;62035;52.094;5.112;2023-07-22T12:27:39;11.68;;;4.13;;
62030;SDS011;62035;52.094;5.112;2023-07-22T12:30:07;9.93;;;4.28;;
62030;SDS011;62035;52.094;5.112;2023-07-22T12:32:35;8.75;;;4.80;;
62030;SDS011;62035;52.094;5.112;2023-07-22T12:35:03;13.38;;;3.67;;
62030;SDS011;62035;52.094;5.112;2023-07-22T12:37:32;10.55;;;4.13;;
62030;SDS011;62035;52.094;5.112;2023-07-22T12:40:00;8.73;;;3.47;;
62030;SDS011;62035;52.094;5.112;2023-07-22T12:42:30;7.05;;;3.45;;
62030;SDS011;62035;52.094;5.112;2023-07-22T12:44:59;6.93;;;3.10;;
62030;SDS011;62035;52.094;5.112;2023-07-22T12:47:27;10.90;;;3.88;;
62030;SDS011;62035;52.094;5.112;2023-07-22T12:49:55;8.90;;;2.65;;
62030;SDS011;62035;52.094;5.112;2023-07-22T12:52:22;6.45;;;2.30;;
62030;SDS011;62035;52.094;5.112;2023-07-22T12:54:50;7.75;;;2.30;;
62030;SDS011;62035;52.094;5.112;2023-07-22T12:57:17;6.25;;;1.83;;
62030;SDS011;62035;52.094;5.112;2023-07-22T12:59:45;6.63;;;1.77;;
62030;SDS011;62035;52.094;5.112;2023-07-22T13:02:15;7.82;;;2.10;;
62030;SDS011;62035;52.094;5.112;2023-07-22T13:04:43;5.55;;;2.13;;
62030;SDS011;62035;52.094;5.112;2023-07-22T13:07:11;6.53;;;2.33;;
62030;SDS011;62035;52.094;5.112;2023-07-22T13:09:39;5.40;;;1.88;;
62030;SDS011;62035;52.094;5.112;2023-07-22T13:12:08;4.45;;;2.33;;
62030;SDS011;62035;52.094;5.112;2023-07-22T13:14:36;8.18;;;2.60;;
62030;SDS011;62035;52.094;5.112;2023-07-22T13:17:04;4.65;;;1.88;;
62030;SDS011;62035;52.094;5.112;2023-07-22T13:19:33;5.72;;;1.95;;
62030;SDS011;62035;52.094;5.112;2023-07-22T13:22:01;4.93;;;1.90;;
62030;SDS011;62035;52.094;5.112;2023-07-22T13:24:29;6.05;;;2.40;;
62030;SDS011;62035;52.094;5.112;2023-07-22T13:26:56;6.63;;;2.42;;
62030;SDS011;62035;52.094;5.112;2023-07-22T13:29:24;8.00;;;2.08;;
62030;SDS011;62035;52.094;5.112;2023-07-22T13:31:51;6.38;;;2.25;;
62030;SDS011;62035;52.094;5.112;2023-07-22T13:34:19;8.38;;;2.42;;
62030;SDS011;62035;52.094;5.112;2023-07-22T13:36:48;3.88;;;2.08;;
62030;SDS011;62035;52.094;5.112;2023-07-22T13:39:16;5.03;;;2.08;;
62030;SDS011;62035;52.094;5.112;2023-07-22T13:41:44;6.43;;;1.90;;
62030;SDS011;62035;52.094;5.112;2023-07-22T13:44:11;8.65;;;2.67;;
62030;SDS011;62035;52.094;5.112;2023-07-22T13:46:39;7.20;;;2.38;;
62030;SDS011;62035;52.094;5.112;2023-07-22T13:49:07;5.30;;;2.53;;
62030;SDS011;62035;52.094;5.112;2023-07-22T13:51:34;5.13;;;2.60;;
62030;SDS011;62035;52.094;5.112;2023-07-22T13:54:03;5.80;;;2.33;;
62030;SDS011;62035;52.094;5.112;2023-07-22T13:56:31;9.20;;;2.20;;
62030;SDS011;62035;52.094;5.112;2023-07-22T13:58:59;7.65;;;2.67;;
62030;SDS011;62035;52.094;5.112;2023-07-22T14:01:29;6.07;;;1.90;;
62030;SDS011;62035;52.094;5.112;2023-07-22T14:03:57;7.88;;;2.67;;
62030;SDS011;62035;52.094;5.112;2023-07-22T14:06:24;3.75;;;1.88;;
62030;SDS011;62035;52.094;5.112;2023-07-22T14:08:52;7.30;;;2.03;;
62030;SDS011;62035;52.094;5.112;2023-07-22T14:11:21;6.78;;;2.22;;
62030;SDS011;62035;52.094;5.112;2023-07-22T14:13:49;5.55;;;2.35;;
62030;SDS011;62035;52.094;5.112;2023-07-22T14:16:18;5.53;;;2.17;;
62030;SDS011;62035;52.094;5.112;2023-07-22T14:18:45;4.93;;;2.28;;
62030;SDS011;62035;52.094;5.112;2023-07-22T14:21:14;7.18;;;2.40;;
62030;SDS011;62035;52.094;5.112;2023-07-22T14:23:41;7.68;;;2.53;;
62030;SDS011;62035;52.094;5.112;2023-07-22T14:26:09;8.05;;;2.60;;
62030;SDS011;62035;52.094;5.112;2023-07-22T14:28:38;5.43;;;2.13;;
62030;SDS011;62035;52.094;5.112;2023-07-22T14:31:06;10.32;;;3.00;;
62030;SDS011;62035;52.094;5.112;2023-07-22T14:33:34;7.28;;;2.05;;
62030;SDS011;62035;52.094;5.112;2023-07-22T14:36:02;6.68;;;2.40;;
62030;SDS011;62035;52.094;5.112;2023-07-22T14:38:30;4.25;;;2.25;;
62030;SDS011;62035;52.094;5.112;2023-07-22T14:40:57;5.95;;;2.08;;
62030;SDS011;62035;52.094;5.112;2023-07-22T14:43:25;5.45;;;2.30;;